Terminal Aerodrome Forecast
Issued by NWS Albany, NY

Home | Current Version | Previous Version | Text Only | Print | Product List | Glossary On
Versions: 1 2 3 4 5 6 7 8 9 10 11 12 13
000
FTUS41 KALY 260520
TAFPOU
TAF
KPOU 260520Z 2606/2706 00000KT P6SM SCT250
     FM261400 35003KT P6SM SCT050 SCT250
     FM261800 32005KT P6SM OVC050
     FM270200 33003KT P6SM BKN050 BKN080=

USA.gov is the U.S. government's official web portal to all federal, state and local government web resources and services.